Time;durP1;ratioP1;P1;durP2;ratioP2;P2;SDS_P1;SDS_P2;PMS_P1;PMS_P2;Temp;Humidity;BMP_temperature;BMP_pressure;BME280_temperature;BME280_humidity;BME280_pressure;Samples;Min_cycle;Max_cycle;Signal;HPM_P1;HPM_P2
2023/08/31 00:00:00;;;;;;;2.50;1.00;;;;;;;20.33;61.65;100872.31;5072705;28;20511;-75
2023/08/31 00:02:25;;;;;;;7.03;1.40;;;;;;;20.66;60.89;100868.88;5078444;28;20058;-75
2023/08/31 00:04:53;;;;;;;6.45;1.10;;;;;;;20.64;60.61;100884.91;5072615;28;20402;-75
2023/08/31 00:07:19;;;;;;;2.08;0.90;;;;;;;19.76;64.34;100883.91;5090089;28;20047;-75
2023/08/31 00:09:44;;;;;;;1.42;1.00;;;;;;;20.30;61.54;100880.44;5084020;28;20487;-75
2023/08/31 00:12:13;;;;;;;3.15;1.00;;;;;;;20.04;64.28;100873.78;5092788;28;20395;-75
2023/08/31 00:14:38;;;;;;;7.68;1.27;;;;;;;19.67;65.41;100871.06;5091227;28;20449;-75
2023/08/31 00:17:05;;;;;;;2.85;1.10;;;;;;;19.73;66.92;100875.22;5072152;28;20029;-75
2023/08/31 00:19:30;;;;;;;2.67;1.13;;;;;;;20.60;62.32;100872.72;5088620;28;20709;-75
2023/08/31 00:21:55;;;;;;;2.17;1.38;;;;;;;21.09;59.81;100879.94;5087216;28;20115;-75
2023/08/31 00:24:21;;;;;;;1.85;1.30;;;;;;;20.30;62.36;100875.13;5070828;28;20124;-75
2023/08/31 00:26:50;;;;;;;3.03;0.88;;;;;;;20.41;62.25;100883.41;5071678;28;20546;-75
2023/08/31 00:29:16;;;;;;;4.43;1.00;;;;;;;19.60;65.86;100874.94;5091499;28;20028;-75
2023/08/31 00:31:44;;;;;;;1.17;1.00;;;;;;;20.64;61.91;100870.78;5089483;28;20023;-75
2023/08/31 00:34:11;;;;;;;1.35;0.90;;;;;;;20.30;61.99;100868.03;5071786;28;20036;-75
2023/08/31 00:36:38;;;;;;;2.17;1.20;;;;;;;19.93;62.97;100874.31;5070985;28;20373;-75
2023/08/31 00:39:10;;;;;;;2.08;1.90;;;;;;;20.65;61.76;100876.00;5071901;28;20107;-75
2023/08/31 00:41:35;;;;;;;3.67;1.13;;;;;;;20.73;60.85;100873.00;5071175;28;20040;-74
2023/08/31 00:44:02;;;;;;;2.95;1.08;;;;;;;19.94;64.47;100874.22;5071561;28;20032;-75
2023/08/31 00:46:27;;;;;;;2.90;0.88;;;;;;;20.21;63.83;100875.59;5070354;28;20020;-75
2023/08/31 00:48:54;;;;;;;1.13;0.90;;;;;;;20.47;62.28;100877.81;5071585;28;20583;-75
2023/08/31 00:51:19;;;;;;;3.60;1.95;;;;;;;20.51;61.47;100874.06;5079859;28;20027;-75
2023/08/31 00:53:45;;;;;;;3.85;1.60;;;;;;;20.37;61.28;100871.22;5091746;28;20024;-74
2023/08/31 00:56:11;;;;;;;1.95;1.00;;;;;;;20.06;61.52;100862.16;5092045;28;20383;-75
2023/08/31 00:58:36;;;;;;;4.50;1.00;;;;;;;20.78;59.67;100870.94;5088938;28;20055;-75
2023/08/31 01:01:27;;;;;;;2.53;1.48;;;;;;;20.60;59.70;100872.72;5086975;28;20075;-75
2023/08/31 01:04:25;;;;;;;1.38;1.15;;;;;;;20.56;59.01;100870.31;5089861;28;20024;-75
2023/08/31 01:07:16;;;;;;;3.72;1.38;;;;;;;21.03;56.72;100864.31;5090072;28;20495;-75
2023/08/31 01:09:57;;;;;;;1.40;1.30;;;;;;;20.44;59.18;100867.34;5070919;28;20036;-75
2023/08/31 01:12:33;;;;;;;2.47;1.20;;;;;;;20.03;60.19;100870.28;5090352;28;20360;-74
2023/08/31 01:15:04;;;;;;;1.73;0.90;;;;;;;19.51;60.92;100881.56;5084009;28;20100;-75
2023/08/31 01:17:31;;;;;;;1.00;0.90;;;;;;;19.43;62.47;100871.31;5074848;28;20506;-75
2023/08/31 01:19:59;;;;;;;1.20;1.10;;;;;;;19.69;62.01;100873.63;5090599;28;20601;-74
2023/08/31 01:22:33;;;;;;;1.60;0.90;;;;;;;20.98;57.54;100871.69;5089130;28;20024;-75
2023/08/31 01:25:04;;;;;;;1.80;1.00;;;;;;;20.87;57.64;100866.94;5076192;28;20085;-74
2023/08/31 01:27:31;;;;;;;3.13;1.20;;;;;;;19.95;60.47;100870.66;5086243;28;20024;-74
2023/08/31 01:29:57;;;;;;;7.25;1.60;;;;;;;20.59;57.92;100875.44;5088020;28;20047;-74
2023/08/31 01:32:22;;;;;;;3.13;1.25;;;;;;;20.30;60.35;100880.44;5078198;28;20476;-74
2023/08/31 01:34:52;;;;;;;2.63;0.93;;;;;;;19.65;62.34;100873.78;5069870;28;20020;-74
2023/08/31 01:37:34;;;;;;;1.80;1.33;;;;;;;21.15;57.29;100874.28;5083032;28;20024;-74
2023/08/31 01:40:06;;;;;;;1.95;0.90;;;;;;;20.59;60.40;100878.09;5086059;28;20032;-74
2023/08/31 01:42:32;;;;;;;1.80;1.47;;;;;;;21.18;58.13;100884.78;5076745;28;20039;-74
2023/08/31 01:45:00;;;;;;;2.35;1.17;;;;;;;21.52;56.65;100914.84;5088218;28;20020;-73
2023/08/31 01:47:26;;;;;;;5.32;1.67;;;;;;;20.97;57.77;100912.47;5072088;28;20019;-72
2023/08/31 01:49:52;;;;;;;2.45;1.20;;;;;;;21.03;60.51;100906.84;5087736;28;20062;-72
2023/08/31 01:52:17;;;;;;;4.25;1.27;;;;;;;21.21;60.78;100898.84;5089271;28;20028;-73
2023/08/31 01:54:43;;;;;;;1.65;1.27;;;;;;;21.58;57.93;100887.06;5076976;28;20484;-73
2023/08/31 01:57:08;;;;;;;3.85;1.30;;;;;;;20.87;58.51;100892.63;5069884;28;20044;-74
2023/08/31 01:59:35;;;;;;;1.05;0.80;;;;;;;20.77;58.93;100894.91;5069174;28;20052;-73
2023/08/31 02:02:00;;;;;;;0.82;0.82;;;;;;;21.32;59.21;100897.31;5083505;28;20028;-73
2023/08/31 02:04:26;;;;;;;1.92;1.00;;;;;;;21.02;57.70;100890.03;5080141;28;20059;-73
2023/08/31 02:06:51;;;;;;;1.13;1.00;;;;;;;21.51;57.72;100886.53;5069926;28;20074;-74
2023/08/31 02:09:16;;;;;;;4.10;1.40;;;;;;;21.79;59.40;100879.72;5070635;28;20087;-75
2023/08/31 02:11:42;;;;;;;1.58;0.98;;;;;;;21.84;58.97;100872.34;5086021;28;20030;-74
2023/08/31 02:14:07;;;;;;;3.67;1.10;;;;;;;22.37;57.63;100874.66;5088594;28;20023;-74
2023/08/31 02:16:33;;;;;;;3.35;1.02;;;;;;;21.98;56.83;100874.19;5087544;28;20026;-74
2023/08/31 02:18:59;;;;;;;3.40;1.00;;;;;;;20.78;59.15;100889.53;5075434;28;20449;-74
2023/08/31 02:21:24;;;;;;;4.07;1.60;;;;;;;20.51;59.74;100887.34;5090943;28;20028;-74
2023/08/31 02:23:50;;;;;;;4.20;1.20;;;;;;;20.46;60.06;100886.69;5087897;28;20396;-75
2023/08/31 02:26:15;;;;;;;1.27;1.17;;;;;;;20.19;60.16;100885.44;5074201;28;20093;-74
2023/08/31 02:28:41;;;;;;;2.10;1.45;;;;;;;19.96;61.79;100877.69;5069518;28;20029;-75
2023/08/31 02:31:06;;;;;;;1.27;0.90;;;;;;;20.44;59.62;100877.97;5071678;28;20460;-75
2023/08/31 02:33:31;;;;;;;3.45;1.33;;;;;;;20.66;59.51;100872.41;5071729;28;20070;-75
2023/08/31 02:35:57;;;;;;;4.55;1.40;;;;;;;20.22;60.20;100872.00;5089339;28;20476;-76
2023/08/31 02:38:23;;;;;;;1.30;1.10;;;;;;;20.43;59.48;100886.88;5078352;28;20125;-75
2023/08/31 02:40:49;;;;;;;1.80;1.20;;;;;;;20.80;58.47;100885.00;5077299;28;20065;-75
2023/08/31 02:43:14;;;;;;;1.67;1.30;;;;;;;20.83;58.25;100874.22;5088722;28;20506;-75
2023/08/31 02:45:40;;;;;;;1.42;1.33;;;;;;;20.87;58.12;100869.59;5078985;28;20032;-75
2023/08/31 02:48:08;;;;;;;5.30;1.50;;;;;;;20.01;60.67;100874.78;5089128;28;20119;-76
2023/08/31 02:50:35;;;;;;;3.45;1.42;;;;;;;20.79;58.48;100877.13;5090921;28;20118;-75
2023/08/31 02:53:00;;;;;;;2.40;1.40;;;;;;;20.51;59.48;100863.44;5093986;28;20053;-75
2023/08/31 02:55:25;;;;;;;1.95;1.38;;;;;;;20.62;58.66;100875.28;5081169;28;20102;-75
2023/08/31 02:57:51;;;;;;;3.83;1.88;;;;;;;21.25;56.87;100877.31;5073388;28;20025;-75
2023/08/31 03:00:17;;;;;;;3.38;1.70;;;;;;;21.00;57.72;100865.34;5078775;28;20048;-75
2023/08/31 03:02:43;;;;;;;3.70;1.90;;;;;;;20.25;59.68;100874.50;5075590;28;20377;-75
2023/08/31 03:05:09;;;;;;;3.05;1.73;;;;;;;19.62;62.77;100873.09;5089506;28;20680;-75
2023/08/31 03:07:34;;;;;;;5.22;1.65;;;;;;;19.52;64.31;100871.81;5074243;28;20464;-75
2023/08/31 03:10:00;;;;;;;2.38;1.50;;;;;;;20.21;60.81;100870.28;5073588;28;20032;-75
2023/08/31 03:12:26;;;;;;;2.67;1.65;;;;;;;19.75;62.03;100868.91;5081000;28;20411;-75
2023/08/31 03:14:51;;;;;;;2.85;1.90;;;;;;;19.28;64.55;100864.91;5082425;28;20121;-75
2023/08/31 03:17:17;;;;;;;8.05;1.80;;;;;;;19.24;64.25;100867.78;5084919;28;20038;-75
2023/08/31 03:19:42;;;;;;;2.00;1.38;;;;;;;20.36;59.92;100863.34;5093666;28;20051;-75
2023/08/31 03:22:07;;;;;;;3.70;1.90;;;;;;;19.68;62.09;100862.19;5090436;28;20028;-75
2023/08/31 03:24:33;;;;;;;4.25;1.50;;;;;;;20.76;58.27;100862.19;5093115;28;20028;-75
2023/08/31 03:26:58;;;;;;;3.05;1.40;;;;;;;20.16;59.79;100863.41;5091716;28;20032;-75
2023/08/31 03:29:24;;;;;;;4.28;1.25;;;;;;;19.82;61.46;100865.09;5091394;28;20035;-75
2023/08/31 03:31:49;;;;;;;3.63;1.73;;;;;;;19.98;60.45;100859.03;5079085;28;20032;-75
2023/08/31 03:34:15;;;;;;;3.15;1.58;;;;;;;19.95;60.45;100859.19;5091537;28;20042;-75
2023/08/31 03:36:41;;;;;;;3.53;1.50;;;;;;;19.90;60.79;100855.88;5073844;28;20485;-75
2023/08/31 03:39:06;;;;;;;3.58;1.83;;;;;;;19.81;60.91;100863.38;5073154;28;20032;-75
2023/08/31 03:41:32;;;;;;;5.20;1.40;;;;;;;20.08;60.53;100864.75;5079183;28;20028;-75
2023/08/31 03:43:57;;;;;;;2.40;1.40;;;;;;;20.11;58.91;100860.16;5087776;28;20024;-75
2023/08/31 03:46:24;;;;;;;3.03;1.60;;;;;;;19.70;61.55;100860.34;5085829;28;20062;-75
2023/08/31 03:48:49;;;;;;;6.72;1.85;;;;;;;19.45;61.48;100865.91;5091956;28;20111;-75
2023/08/31 03:51:14;;;;;;;4.22;1.83;;;;;;;19.85;60.13;100868.50;5090495;28;20031;-75
2023/08/31 03:53:40;;;;;;;4.90;1.73;;;;;;;19.49;60.79;100865.72;5072510;28;20044;-75
2023/08/31 03:56:05;;;;;;;2.67;1.45;;;;;;;20.45;59.83;100874.34;5071755;28;20115;-75
2023/08/31 03:58:31;;;;;;;1.55;1.40;;;;;;;20.08;57.80;100870.88;5074980;28;20286;-75
2023/08/31 04:00:56;;;;;;;4.03;1.73;;;;;;;19.94;57.88;100876.03;5075707;28;20044;-74
2023/08/31 04:03:22;;;;;;;6.88;1.27;;;;;;;19.72;58.49;100868.22;5090903;28;20032;-75
2023/08/31 04:05:47;;;;;;;2.30;1.58;;;;;;;19.62;59.09;100878.41;5092613;28;20035;-75
2023/08/31 04:08:13;;;;;;;2.78;1.23;;;;;;;19.44;59.60;100875.69;5092502;28;20043;-74
2023/08/31 04:10:38;;;;;;;2.85;1.27;;;;;;;19.86;57.34;100871.09;5078020;28;20085;-75
2023/08/31 04:13:04;;;;;;;2.30;1.30;;;;;;;19.70;57.74;100884.19;5072403;28;20039;-75
2023/08/31 04:15:30;;;;;;;2.85;1.10;;;;;;;19.81;57.71;100884.56;5071322;28;20025;-75
2023/08/31 04:17:56;;;;;;;3.22;1.45;;;;;;;19.48;59.55;100887.84;5085478;28;20035;-75
2023/08/31 04:20:22;;;;;;;4.50;1.48;;;;;;;18.73;60.83;100884.09;5087163;28;20028;-75
2023/08/31 04:22:47;;;;;;;2.00;1.00;;;;;;;19.12;58.51;100891.25;5080636;28;20413;-75
2023/08/31 04:25:13;;;;;;;2.70;1.02;;;;;;;19.10;59.42;100890.47;5078425;28;20028;-74
2023/08/31 04:27:41;;;;;;;3.88;1.23;;;;;;;19.02;58.39;100895.22;5072187;28;20105;-75
2023/08/31 04:30:07;;;;;;;1.60;1.00;;;;;;;19.41;58.20;100902.34;5071499;28;20052;-75
2023/08/31 04:32:33;;;;;;;1.65;0.80;;;;;;;19.24;57.92;100902.22;5073484;28;20063;-75
2023/08/31 04:34:58;;;;;;;1.08;0.98;;;;;;;18.92;58.96;100899.22;5091871;28;20028;-75
2023/08/31 04:37:24;;;;;;;3.47;0.95;;;;;;;19.41;59.05;100904.97;5083811;28;20052;-74
2023/08/31 04:39:49;;;;;;;2.95;1.00;;;;;;;18.85;58.65;100897.72;5088892;28;20031;-75
2023/08/31 04:42:16;;;;;;;2.65;0.90;;;;;;;19.42;57.15;100901.38;5091387;28;20039;-74
2023/08/31 04:44:42;;;;;;;5.13;1.08;;;;;;;19.27;57.13;100917.97;5090397;28;20482;-75
2023/08/31 04:47:08;;;;;;;0.77;0.70;;;;;;;19.82;57.38;100915.47;5091722;28;20016;-74
2023/08/31 04:49:33;;;;;;;3.30;1.00;;;;;;;19.39;56.18;100920.06;5089080;28;20282;-74
2023/08/31 04:51:58;;;;;;;4.32;1.25;;;;;;;19.50;56.63;100917.78;5082205;28;20032;-75
2023/08/31 04:54:25;;;;;;;1.10;0.70;;;;;;;19.61;56.78;100917.28;5085857;28;20043;-75
2023/08/31 04:56:50;;;;;;;2.22;0.93;;;;;;;19.54;57.08;100928.28;5092920;28;20032;-74
2023/08/31 04:59:16;;;;;;;1.83;0.77;;;;;;;19.88;56.43;100930.22;5077938;28;20044;-75
2023/08/31 05:01:41;;;;;;;2.67;1.00;;;;;;;19.04;57.52;100925.19;5045537;28;20408;-75
2023/08/31 05:04:06;;;;;;;1.40;0.88;;;;;;;19.64;56.65;100935.69;5049963;28;20032;-75
2023/08/31 05:06:32;;;;;;;3.28;0.70;;;;;;;19.67;55.87;100940.00;5068486;28;20028;-75
2023/08/31 05:08:57;;;;;;;1.15;0.75;;;;;;;19.99;54.98;100945.63;5054316;28;20535;-74
2023/08/31 05:11:23;;;;;;;2.08;1.00;;;;;;;20.06;55.04;100944.41;5068582;28;20033;-75
2023/08/31 05:13:49;;;;;;;1.88;0.82;;;;;;;20.36;54.97;100943.84;5034533;28;20056;-74
2023/08/31 05:16:14;;;;;;;5.90;0.80;;;;;;;19.99;55.55;100945.63;5053036;28;20024;-75
2023/08/31 05:18:40;;;;;;;0.65;0.65;;;;;;;20.61;53.88;100942.63;5046515;28;20040;-74
2023/08/31 05:21:06;;;;;;;0.82;0.50;;;;;;;20.89;53.19;100952.72;5041157;28;20501;-74
2023/08/31 05:23:31;;;;;;;2.00;0.85;;;;;;;20.21;53.72;100950.78;5070753;28;20047;-74
2023/08/31 05:25:57;;;;;;;1.05;0.77;;;;;;;20.35;54.17;100942.13;5070602;28;20031;-75
2023/08/31 05:28:23;;;;;;;2.40;1.02;;;;;;;20.32;54.44;100953.75;5053009;28;20070;-75
2023/08/31 05:30:53;;;;;;;1.63;0.85;;;;;;;20.44;54.17;100952.31;5045168;28;20496;-75
2023/08/31 05:33:19;;;;;;;3.30;0.88;;;;;;;20.61;54.54;100947.94;5034446;28;20477;-74
2023/08/31 05:35:45;;;;;;;3.00;1.00;;;;;;;20.44;53.79;100957.59;5035212;28;20036;-74
2023/08/31 05:38:11;;;;;;;2.67;0.90;;;;;;;21.08;52.73;100965.91;5043704;28;20044;-74
2023/08/31 05:40:37;;;;;;;1.83;0.57;;;;;;;21.36;51.39;100969.78;5064208;28;20103;-75
2023/08/31 05:43:03;;;;;;;2.38;0.98;;;;;;;20.64;53.69;100963.72;5047242;28;20128;-74
2023/08/31 05:45:32;;;;;;;0.63;0.50;;;;;;;20.84;53.59;100968.91;5051914;28;20036;-74
2023/08/31 05:47:58;;;;;;;8.55;1.45;;;;;;;20.70;54.35;100974.03;5053196;28;20036;-74
2023/08/31 05:50:23;;;;;;;3.13;0.52;;;;;;;21.17;52.89;100978.72;5053016;28;20077;-74
2023/08/31 05:52:48;;;;;;;0.70;0.70;;;;;;;21.44;51.92;100978.19;5070744;28;20095;-75
2023/08/31 05:55:14;;;;;;;2.17;0.93;;;;;;;21.26;53.22;100987.16;5070505;28;20149;-74
2023/08/31 05:57:39;;;;;;;1.48;0.65;;;;;;;21.33;52.84;100991.22;5033123;28;20476;-74
2023/08/31 06:00:07;;;;;;;1.10;1.00;;;;;;;21.33;52.77;100985.91;5054329;28;20449;-74
2023/08/31 06:02:33;;;;;;;4.25;0.98;;;;;;;21.43;52.15;100984.47;5089229;28;20032;-74
2023/08/31 06:04:59;;;;;;;1.58;0.93;;;;;;;21.29;52.62;100987.00;5083046;28;20032;-74
2023/08/31 06:07:24;;;;;;;12.32;1.88;;;;;;;21.47;53.16;100985.16;5088387;28;20476;-74
2023/08/31 06:09:49;;;;;;;5.18;1.10;;;;;;;21.13;53.45;100990.47;5072710;28;20028;-74
2023/08/31 06:12:15;;;;;;;2.97;1.02;;;;;;;21.21;53.56;100987.38;5069401;28;20024;-74
2023/08/31 06:14:40;;;;;;;2.05;1.23;;;;;;;21.19;53.54;100982.16;5071205;28;20063;-75
2023/08/31 06:17:05;;;;;;;3.58;1.20;;;;;;;21.49;52.08;100988.59;5068745;28;20078;-75
2023/08/31 06:19:31;;;;;;;3.50;1.40;;;;;;;20.39;53.54;100983.50;5069023;28;20067;-75
2023/08/31 06:21:56;;;;;;;2.45;1.10;;;;;;;20.65;52.80;100986.69;5073269;28;20032;-74
2023/08/31 06:24:22;;;;;;;1.10;0.90;;;;;;;20.82;53.52;100989.38;5069900;28;20020;-74
2023/08/31 06:26:47;;;;;;;2.80;1.20;;;;;;;20.87;53.53;100993.59;5069930;28;20555;-74
2023/08/31 06:29:13;;;;;;;1.92;0.80;;;;;;;20.60;54.54;100991.34;5082581;28;20028;-74
2023/08/31 06:31:38;;;;;;;7.75;1.20;;;;;;;21.46;52.96;101005.59;5084614;28;20032;-74
2023/08/31 06:34:06;;;;;;;2.83;1.10;;;;;;;21.46;52.90;100994.06;5089954;28;20036;-74
2023/08/31 06:36:32;;;;;;;1.80;1.15;;;;;;;21.16;53.37;101003.59;5080783;28;20036;-74
2023/08/31 06:38:57;;;;;;;1.15;1.05;;;;;;;20.99;53.67;100995.63;5083896;28;20021;-73
2023/08/31 06:41:22;;;;;;;4.80;1.00;;;;;;;21.19;53.01;101007.88;5089109;28;20042;-74
2023/08/31 06:43:48;;;;;;;2.25;0.98;;;;;;;21.35;52.71;101008.81;5074838;28;20430;-74
2023/08/31 06:46:14;;;;;;;7.18;1.25;;;;;;;21.09;53.44;101007.50;5081674;28;20067;-75
2023/08/31 06:48:39;;;;;;;2.78;1.10;;;;;;;21.29;53.15;101002.94;5080726;28;20468;-74
2023/08/31 06:51:04;;;;;;;2.95;1.10;;;;;;;21.48;52.02;101006.34;5090166;28;20070;-75
2023/08/31 06:53:31;;;;;;;2.22;1.40;;;;;;;22.16;52.03;101000.03;5085903;28;20457;-74
2023/08/31 06:55:57;;;;;;;2.65;1.00;;;;;;;21.52;53.06;101007.94;5069501;28;20037;-74
2023/08/31 06:58:24;;;;;;;0.77;0.77;;;;;;;22.15;52.30;101014.28;5073754;28;20032;-75
2023/08/31 07:00:49;;;;;;;4.28;0.82;;;;;;;21.59;51.63;101010.28;5069512;28;20135;-74
2023/08/31 07:03:15;;;;;;;4.88;1.05;;;;;;;21.10;52.41;101019.88;5085425;28;20169;-74
2023/08/31 07:05:43;;;;;;;1.50;1.02;;;;;;;21.35;51.79;101021.25;5082687;28;20145;-75
2023/08/31 07:08:09;;;;;;;2.13;0.82;;;;;;;22.31;50.17;101024.06;5084669;28;20029;-74
2023/08/31 07:10:38;;;;;;;1.40;0.73;;;;;;;21.29;51.46;101019.75;5085406;28;20063;-75
2023/08/31 07:13:04;;;;;;;1.10;0.90;;;;;;;21.50;52.08;101023.09;5065012;28;20028;-74
2023/08/31 07:15:30;;;;;;;0.80;0.60;;;;;;;22.69;50.16;101021.06;5070245;28;20124;-74
2023/08/31 07:17:55;;;;;;;4.88;1.15;;;;;;;21.83;50.70;101024.91;5073927;28;20123;-74
2023/08/31 07:20:21;;;;;;;3.55;0.80;;;;;;;21.89;50.47;101033.50;5080923;28;20024;-75
2023/08/31 07:22:46;;;;;;;3.00;0.77;;;;;;;22.54;50.23;101020.13;5076882;28;20559;-74
2023/08/31 07:25:12;;;;;;;2.03;1.08;;;;;;;22.37;50.39;101029.09;5083888;28;20028;-74
2023/08/31 07:27:37;;;;;;;2.22;0.98;;;;;;;22.72;49.95;101028.88;5079872;28;20074;-75
2023/08/31 07:30:05;;;;;;;1.17;0.60;;;;;;;22.36;50.87;101033.53;5076025;28;20112;-74
2023/08/31 07:32:30;;;;;;;4.40;0.85;;;;;;;22.22;50.20;101040.59;5084141;28;20051;-75
2023/08/31 07:34:56;;;;;;;1.90;0.77;;;;;;;23.32;48.85;101027.16;5085557;28;20028;-75
2023/08/31 07:37:21;;;;;;;0.60;0.60;;;;;;;24.00;46.56;101028.31;5088208;28;20031;-74
2023/08/31 07:39:47;;;;;;;0.65;0.65;;;;;;;25.36;43.05;101035.44;5085673;28;20035;-74
2023/08/31 07:42:12;;;;;;;1.75;0.60;;;;;;;26.28;40.06;101032.56;5074510;28;20036;-75
2023/08/31 07:44:37;;;;;;;1.55;0.45;;;;;;;27.58;38.92;101024.50;5079142;28;20032;-74
2023/08/31 07:47:03;;;;;;;2.83;0.50;;;;;;;28.43;36.57;101041.03;5087540;28;20119;-75
2023/08/31 07:49:28;;;;;;;2.15;0.50;;;;;;;29.65;35.26;101046.06;5085819;28;20020;-74
2023/08/31 07:51:54;;;;;;;2.10;0.75;;;;;;;28.39;35.67;101039.59;5084869;28;20115;-75
2023/08/31 07:54:23;;;;;;;1.38;0.80;;;;;;;29.42;34.45;101043.56;5089700;28;20365;-75
2023/08/31 07:56:48;;;;;;;1.02;0.30;;;;;;;27.81;36.41;101046.00;5081345;28;20028;-75
2023/08/31 07:59:14;;;;;;;0.20;0.20;;;;;;;27.28;35.66;101043.00;5081242;28;20139;-75
2023/08/31 08:01:40;;;;;;;1.10;0.40;;;;;;;28.12;35.07;101054.28;5065181;28;20028;-74
2023/08/31 08:04:06;;;;;;;1.08;0.40;;;;;;;29.14;33.99;101056.66;5043797;28;20525;-74
2023/08/31 08:06:32;;;;;;;1.67;0.40;;;;;;;28.11;34.87;101052.59;5045592;28;20107;-75
2023/08/31 08:08:57;;;;;;;0.60;0.30;;;;;;;27.23;36.15;101054.94;5049740;28;20380;-75
2023/08/31 08:11:22;;;;;;;0.55;0.40;;;;;;;29.05;34.95;101057.44;5053897;28;20032;-75
2023/08/31 08:13:48;;;;;;;1.02;0.30;;;;;;;28.82;35.05;101060.22;5050796;28;20031;-74
2023/08/31 08:16:14;;;;;;;0.30;0.30;;;;;;;28.16;34.00;101061.13;5053665;28;20174;-74
2023/08/31 08:18:40;;;;;;;0.47;0.30;;;;;;;28.42;33.81;101071.59;5072285;28;20039;-75
2023/08/31 08:21:06;;;;;;;0.38;0.28;;;;;;;27.28;33.61;101069.81;5053706;28;20477;-75
2023/08/31 08:23:31;;;;;;;1.35;0.32;;;;;;;25.95;34.95;101082.22;5068837;28;20517;-75
2023/08/31 08:25:59;;;;;;;0.55;0.20;;;;;;;27.46;34.43;101073.78;5052822;28;20028;-75
2023/08/31 08:28:25;;;;;;;1.00;0.50;;;;;;;26.82;34.38;101075.03;5046521;28;20028;-75
2023/08/31 08:30:50;;;;;;;0.45;0.40;;;;;;;26.68;34.92;101083.22;5053303;28;20144;-75
2023/08/31 08:33:15;;;;;;;0.85;0.43;;;;;;;27.32;33.75;101082.88;5054418;28;20125;-75
2023/08/31 08:35:41;;;;;;;1.70;0.68;;;;;;;27.21;33.41;101082.84;5054191;28;20039;-74
2023/08/31 08:38:06;;;;;;;1.77;0.40;;;;;;;28.47;31.70;101085.50;5046776;28;20025;-75
2023/08/31 08:40:32;;;;;;;5.22;0.60;;;;;;;27.98;33.05;101089.44;5049768;28;20029;-75
2023/08/31 08:43:00;;;;;;;0.80;0.40;;;;;;;28.37;32.89;101089.91;5049614;28;20033;-74
2023/08/31 08:45:30;;;;;;;1.38;0.45;;;;;;;27.87;33.32;101093.84;5038572;28;20040;-75
2023/08/31 08:47:57;;;;;;;1.13;0.40;;;;;;;27.69;33.64;101089.94;5051948;28;20031;-75
2023/08/31 08:50:24;;;;;;;3.03;0.50;;;;;;;28.16;33.19;101103.28;5040317;28;20035;-75
2023/08/31 08:52:50;;;;;;;2.50;0.90;;;;;;;28.53;31.88;101092.22;5053271;28;20028;-74
2023/08/31 08:55:16;;;;;;;1.77;0.40;;;;;;;28.89;32.17;101090.16;5039769;28;20035;-75
2023/08/31 08:57:41;;;;;;;0.35;0.35;;;;;;;28.70;32.18;101104.28;5033554;28;20028;-75
2023/08/31 09:00:08;;;;;;;0.77;0.30;;;;;;;27.58;33.04;101101.50;5066996;28;20084;-75
2023/08/31 09:02:33;;;;;;;0.15;0.15;;;;;;;27.47;33.63;101096.13;5044908;28;20032;-75
2023/08/31 09:04:58;;;;;;;3.72;0.50;;;;;;;28.11;32.15;101100.97;5041828;28;20021;-75
2023/08/31 09:07:24;;;;;;;1.67;0.57;;;;;;;27.67;32.97;101103.47;5044326;28;20027;-75
2023/08/31 09:09:51;;;;;;;3.22;0.63;;;;;;;27.46;32.61;101111.34;5063202;28;20025;-75
2023/08/31 09:12:18;;;;;;;1.75;0.60;;;;;;;28.60;32.03;101102.34;5039226;28;20033;-75
2023/08/31 09:14:56;;;;;;;2.58;0.93;;;;;;;28.18;32.79;101107.53;5045932;28;20017;-75
2023/08/31 09:17:23;;;;;;;0.90;0.45;;;;;;;26.68;34.11;101126.09;5035252;28;20049;-75
2023/08/31 09:20:05;;;;;;;1.85;0.20;;;;;;;26.24;33.97;101123.00;5043216;28;20032;-75
2023/08/31 09:22:31;;;;;;;1.00;0.30;;;;;;;26.62;33.68;101121.22;5069153;28;20042;-75
2023/08/31 09:24:57;;;;;;;0.57;0.40;;;;;;;26.83;32.78;101125.03;5048939;28;20876;-75
2023/08/31 09:27:24;;;;;;;1.75;0.40;;;;;;;26.10;34.08;101113.28;5060938;28;20103;-75
2023/08/31 09:29:50;;;;;;;1.27;0.75;;;;;;;26.38;34.04;101119.34;5049096;28;20538;-75
2023/08/31 09:32:18;;;;;;;4.60;0.70;;;;;;;26.18;33.92;101118.94;5044340;28;20378;-74
2023/08/31 09:34:45;;;;;;;0.50;0.32;;;;;;;26.54;33.45;101130.66;5037792;28;20062;-75
2023/08/31 09:37:11;;;;;;;1.05;0.52;;;;;;;27.87;32.06;101115.31;5053105;28;20132;-76
2023/08/31 09:39:41;;;;;;;2.00;0.50;;;;;;;28.92;32.12;101117.66;5051688;28;20029;-75
2023/08/31 09:42:06;;;;;;;2.92;0.30;;;;;;;26.57;32.17;101132.25;5069865;28;20507;-75
2023/08/31 09:44:32;;;;;;;0.90;0.30;;;;;;;26.89;32.37;101121.88;5061109;28;20107;-76
2023/08/31 09:46:58;;;;;;;0.90;0.40;;;;;;;27.40;33.25;101117.22;5034273;28;20370;-76
2023/08/31 09:49:24;;;;;;;0.65;0.50;;;;;;;27.24;32.46;101118.38;5058789;28;20464;-75
2023/08/31 09:51:51;;;;;;;0.95;0.30;;;;;;;28.47;31.69;101117.75;5046304;28;20032;-75
2023/08/31 09:54:19;;;;;;;0.82;0.30;;;;;;;26.88;32.15;101128.19;5051468;28;20039;-75
2023/08/31 09:56:46;;;;;;;9.77;0.73;;;;;;;27.06;32.45;101125.09;5043289;28;20039;-76
2023/08/31 09:59:14;;;;;;;1.33;0.40;;;;;;;26.32;34.42;101120.63;5052041;28;20480;-76
2023/08/31 10:01:40;;;;;;;2.80;0.73;;;;;;;26.21;33.84;101129.47;5066566;28;20036;-76
2023/08/31 10:04:08;;;;;;;2.65;0.35;;;;;;;25.88;34.03;101136.22;5045985;28;20535;-75
2023/08/31 10:06:38;;;;;;;1.45;0.30;;;;;;;25.34;34.45;101125.66;5060400;28;20032;-75
2023/08/31 10:09:04;;;;;;;1.23;0.55;;;;;;;26.13;33.83;101129.16;5045103;28;20044;-75
2023/08/31 10:11:31;;;;;;;1.30;0.43;;;;;;;26.33;33.45;101126.88;5039145;28;20024;-75
2023/08/31 10:13:57;;;;;;;0.82;0.45;;;;;;;25.82;34.92;101120.56;5043983;28;20399;-76
2023/08/31 10:16:25;;;;;;;0.30;0.30;;;;;;;26.83;33.51;101119.66;5034696;28;20419;-76
2023/08/31 10:18:51;;;;;;;0.77;0.50;;;;;;;26.67;33.41;101132.44;5042560;28;20487;-76
2023/08/31 10:21:17;;;;;;;0.25;0.10;;;;;;;26.42;33.15;101131.56;5045720;28;20045;-74
2023/08/31 10:23:50;;;;;;;1.77;0.40;;;;;;;26.78;32.73;101131.66;5043801;28;20025;-76
2023/08/31 10:26:25;;;;;;;2.88;0.50;;;;;;;26.79;31.64;101133.38;5052216;28;20036;-75
2023/08/31 10:28:51;;;;;;;1.75;0.35;;;;;;;26.22;32.53;101131.16;5045045;28;20024;-76
2023/08/31 10:31:18;;;;;;;2.15;0.50;;;;;;;25.12;33.58;101129.75;5037139;28;20378;-76
2023/08/31 10:33:55;;;;;;;2.33;0.47;;;;;;;24.69;35.08;101133.44;5052677;28;20162;-75
2023/08/31 10:36:21;;;;;;;3.78;0.70;;;;;;;24.50;35.15;101144.41;5036948;28;20119;-76
2023/08/31 10:39:12;;;;;;;1.88;0.40;;;;;;;24.79;35.64;101136.38;5043779;28;20112;-75
2023/08/31 10:41:38;;;;;;;5.80;0.88;;;;;;;26.34;32.31;101133.94;5041209;28;20048;-76
2023/08/31 10:44:19;;;;;;;1.52;0.45;;;;;;;26.58;33.65;101142.88;5046704;28;20472;-76
2023/08/31 10:46:45;;;;;;;0.68;0.50;;;;;;;27.23;32.68;101129.19;5052795;28;20107;-76
2023/08/31 10:49:11;;;;;;;1.60;0.65;;;;;;;27.33;32.90;101126.69;5033280;28;20029;-76
2023/08/31 10:51:39;;;;;;;0.38;0.32;;;;;;;26.57;33.52;101130.44;5033248;28;20086;-76
2023/08/31 10:54:41;;;;;;;1.70;0.30;;;;;;;27.28;32.14;101129.69;5045588;28;20074;-76
2023/08/31 10:57:06;;;;;;;1.77;0.75;;;;;;;27.38;32.58;101135.25;5043912;28;20028;-76
2023/08/31 10:59:52;;;;;;;2.13;0.47;;;;;;;27.52;30.82;101140.44;5050959;28;20051;-76
2023/08/31 11:02:28;;;;;;;2.92;0.28;;;;;;;26.46;32.31;101141.09;5086689;28;20029;-75
2023/08/31 11:04:54;;;;;;;0.55;0.25;;;;;;;26.45;33.32;101136.69;5075654;28;20036;-76
2023/08/31 11:07:23;;;;;;;1.00;0.47;;;;;;;26.18;33.61;101143.06;5080103;28;20032;-75
2023/08/31 11:09:48;;;;;;;1.15;0.60;;;;;;;26.16;33.63;101136.09;5087460;28;20084;-76
2023/08/31 11:12:14;;;;;;;1.98;0.70;;;;;;;26.61;33.59;101135.56;5091426;28;20103;-76
2023/08/31 11:14:40;;;;;;;0.40;0.30;;;;;;;27.03;32.65;101141.44;5093860;28;20024;-76
2023/08/31 11:17:05;;;;;;;1.85;0.38;;;;;;;27.51;33.07;101137.84;5094801;28;20103;-76
2023/08/31 11:19:35;;;;;;;2.53;0.50;;;;;;;27.39;31.93;101137.81;5092554;28;20043;-76
2023/08/31 11:22:02;;;;;;;0.50;0.28;;;;;;;26.72;31.50;101144.56;5094998;28;20036;-76